Terminal Aerodrome Forecast
Issued by NWS Buffalo, NY

Home | Current Version | Previous Version | Text Only | Print | Product List | Glossary On
Versions: 1 2 3 4 5 6 7 8 9 10 11 12 13 14 15 16 17 18 19 20 21 22 23 24 25 26 27 28
000
FTUS41 KBUF 022153 AAA
TAFART
TAF AMD
KART 022153Z 0222/0318 23008G20KT P6SM FEW120
     FM030200 20005KT P6SM BKN100
     FM030900 20010KT P6SM BKN130 BKN250 WS020/22040KT
     FM031100 22012KT P6SM VCSH SCT025 BKN250
     FM031400 23015KT 6SM -SHRA VCTS SCT025CB BKN090=

USA.gov is the U.S. government's official web portal to all federal, state and local government web resources and services.